createdAt,value
2019-02-06T00:00:41.849Z,4.30
2019-02-06T00:03:11.578Z,4.00
2019-02-06T00:05:39.805Z,5.63
2019-02-06T00:08:08.814Z,3.83
2019-02-06T00:10:37.109Z,4.87
2019-02-06T00:13:05.407Z,4.40
2019-02-06T00:15:33.947Z,4.17
2019-02-06T00:18:02.497Z,5.93
2019-02-06T00:20:31.120Z,4.37
2019-02-06T00:22:59.488Z,4.30
2019-02-06T00:25:27.703Z,4.63
2019-02-06T00:27:55.945Z,4.33
2019-02-06T00:30:25.355Z,4.23
2019-02-06T00:32:53.678Z,4.43
2019-02-06T00:35:25.791Z,5.07
2019-02-06T00:37:52.293Z,4.07
2019-02-06T00:40:20.524Z,4.17
2019-02-06T00:42:48.769Z,4.47
2019-02-06T00:45:17.010Z,4.27
2019-02-06T00:47:45.219Z,4.93
2019-02-06T00:50:15.454Z,4.63
2019-02-06T00:52:43.667Z,4.97
2019-02-06T00:55:13.647Z,4.23
2019-02-06T00:57:41.885Z,3.83
2019-02-06T01:00:14.918Z,4.07
2019-02-06T01:02:43.116Z,4.10
2019-02-06T01:05:13.908Z,4.00
2019-02-06T01:07:42.131Z,3.90
2019-02-06T01:10:13.013Z,4.17
2019-02-06T01:12:41.499Z,4.57
2019-02-06T01:15:11.220Z,4.10
2019-02-06T01:17:39.496Z,3.93
2019-02-06T01:20:09.956Z,4.33
2019-02-06T01:22:38.175Z,5.20
2019-02-06T01:25:08.616Z,4.33
2019-02-06T01:27:36.857Z,4.07
2019-02-06T01:30:11.960Z,3.87
2019-02-06T01:32:40.199Z,4.17
2019-02-06T01:35:10.972Z,3.63
2019-02-06T01:37:39.217Z,4.10
2019-02-06T01:40:09.891Z,4.47
2019-02-06T01:42:38.117Z,4.40
2019-02-06T01:45:09.616Z,4.00
2019-02-06T01:47:37.839Z,3.80
2019-02-06T01:50:09.794Z,4.10
2019-02-06T01:52:38.244Z,4.30
2019-02-06T01:55:08.859Z,4.00
2019-02-06T01:57:37.079Z,4.07
2019-02-06T02:00:20.076Z,4.30
2019-02-06T02:02:48.294Z,4.20
2019-02-06T02:05:18.552Z,4.70
2019-02-06T02:07:47.316Z,4.77
2019-02-06T02:10:15.536Z,4.83
2019-02-06T02:12:43.848Z,3.73
2019-02-06T02:15:18.172Z,4.17
2019-02-06T02:17:46.418Z,4.10
2019-02-06T02:20:17.208Z,4.40
2019-02-06T02:22:45.447Z,4.33
2019-02-06T02:25:13.736Z,3.97
2019-02-06T02:27:42.045Z,4.30
2019-02-06T02:30:15.658Z,3.90
2019-02-06T02:32:44.244Z,5.23
2019-02-06T02:35:12.509Z,4.10
2019-02-06T02:37:40.798Z,3.73
2019-02-06T02:40:10.955Z,3.97
2019-02-06T02:42:39.188Z,4.23
2019-02-06T02:45:10.439Z,4.10
2019-02-06T02:47:38.680Z,3.50
2019-02-06T02:50:09.325Z,4.10
2019-02-06T02:52:37.576Z,4.03
2019-02-06T02:55:10.832Z,4.27
2019-02-06T02:57:39.049Z,3.90
2019-02-06T03:00:13.996Z,3.57
2019-02-06T03:02:50.071Z,4.53
2019-02-06T03:05:19.896Z,4.30
2019-02-06T03:07:48.132Z,4.40
2019-02-06T03:10:16.351Z,4.93
2019-02-06T03:12:44.615Z,4.47
2019-02-06T03:15:13.211Z,4.93
2019-02-06T03:17:41.732Z,3.80
2019-02-06T03:20:12.085Z,4.13
2019-02-06T03:22:40.336Z,4.10
2019-02-06T03:25:10.767Z,4.00
2019-02-06T03:27:39.007Z,4.93
2019-02-06T03:30:10.929Z,3.83
2019-02-06T03:32:39.444Z,3.70
2019-02-06T03:35:08.048Z,4.43
2019-02-06T03:37:36.280Z,4.13
2019-02-06T03:40:07.595Z,3.83
2019-02-06T03:42:35.832Z,3.60
2019-02-06T03:45:06.832Z,4.43
2019-02-06T03:47:35.448Z,4.30
2019-02-06T03:50:04.460Z,4.00
2019-02-06T03:52:32.711Z,3.87
2019-02-06T03:55:00.933Z,3.87
2019-02-06T03:57:29.343Z,4.30
2019-02-06T03:59:57.560Z,4.57
2019-02-06T04:02:25.805Z,3.97
2019-02-06T04:04:54.321Z,3.90
2019-02-06T04:07:22.538Z,4.30
2019-02-06T04:09:51.008Z,3.50
2019-02-06T04:12:19.467Z,3.90
2019-02-06T04:14:47.697Z,3.93
2019-02-06T04:17:15.917Z,3.67
2019-02-06T04:19:44.185Z,4.63
2019-02-06T04:22:12.400Z,4.00
2019-02-06T04:24:40.647Z,4.13
2019-02-06T04:27:08.867Z,3.93
2019-02-06T04:29:37.149Z,3.97
2019-02-06T04:32:05.385Z,3.80
2019-02-06T04:34:33.634Z,3.90
2019-02-06T04:37:06.758Z,4.10
2019-02-06T04:39:32.425Z,4.10
2019-02-06T04:42:00.903Z,4.13
2019-02-06T04:44:29.348Z,4.07
2019-02-06T04:46:57.634Z,3.87
2019-02-06T04:49:25.852Z,4.17
2019-02-06T04:51:54.087Z,4.27
2019-02-06T04:54:22.581Z,4.13
2019-02-06T04:56:50.825Z,4.17
2019-02-06T04:59:19.045Z,4.03
2019-02-06T05:01:47.293Z,4.27
2019-02-06T05:04:15.740Z,4.67
2019-02-06T05:06:44.216Z,4.40
2019-02-06T05:09:12.706Z,4.63
2019-02-06T05:11:41.158Z,3.90
2019-02-06T05:14:09.367Z,4.30
2019-02-06T05:16:37.939Z,3.87
2019-02-06T05:19:06.160Z,4.43
2019-02-06T05:21:34.376Z,4.30
2019-02-06T05:24:02.615Z,3.97
2019-02-06T05:26:30.870Z,3.70
2019-02-06T05:28:59.109Z,4.00
2019-02-06T05:31:27.343Z,4.40
2019-02-06T05:33:55.583Z,3.73
2019-02-06T05:36:23.807Z,4.17
2019-02-06T05:38:52.044Z,4.50
2019-02-06T05:41:20.272Z,4.03
2019-02-06T05:43:48.511Z,3.87
2019-02-06T05:46:16.886Z,4.17
2019-02-06T05:48:45.142Z,4.33
2019-02-06T05:51:13.639Z,4.30
2019-02-06T05:53:41.878Z,4.50
2019-02-06T05:56:10.167Z,4.00
2019-02-06T05:58:38.384Z,4.17
2019-02-06T06:01:06.838Z,4.27
2019-02-06T06:03:35.388Z,4.20
2019-02-06T06:06:03.695Z,4.37
2019-02-06T06:08:31.899Z,4.23
2019-02-06T06:11:00.377Z,3.87
2019-02-06T06:13:28.621Z,4.53
2019-02-06T06:15:56.850Z,4.00
2019-02-06T06:18:25.117Z,3.80
2019-02-06T06:20:53.668Z,4.17
2019-02-06T06:23:21.920Z,4.30
2019-02-06T06:25:50.164Z,3.80
2019-02-06T06:28:18.393Z,4.17
2019-02-06T06:30:47.380Z,4.03
2019-02-06T06:33:15.736Z,4.20
2019-02-06T06:35:43.982Z,4.00
2019-02-06T06:38:12.373Z,4.17
2019-02-06T06:40:40.845Z,3.80
2019-02-06T06:43:09.093Z,3.77
2019-02-06T06:45:37.400Z,4.37
2019-02-06T06:48:05.615Z,4.17
2019-02-06T06:50:33.835Z,4.57
2019-02-06T06:53:02.075Z,3.80
2019-02-06T06:55:30.531Z,4.20
2019-02-06T06:57:59.720Z,4.13
2019-02-06T07:00:30.320Z,4.07
2019-02-06T07:02:58.680Z,4.00
2019-02-06T07:05:26.924Z,4.03
2019-02-06T07:07:55.400Z,4.30
2019-02-06T07:10:23.897Z,4.30
2019-02-06T07:12:52.135Z,3.90
2019-02-06T07:15:29.021Z,4.20
2019-02-06T07:17:57.243Z,3.70
2019-02-06T07:20:25.491Z,4.07
2019-02-06T07:22:53.763Z,3.77
2019-02-06T07:25:22.064Z,3.77
2019-02-06T07:27:50.296Z,4.37
2019-02-06T07:30:32.687Z,3.83
2019-02-06T07:33:00.952Z,3.97
2019-02-06T07:35:29.177Z,3.90
2019-02-06T07:37:58.005Z,4.00
2019-02-06T07:40:26.512Z,3.97
2019-02-06T07:42:54.967Z,3.87
2019-02-06T07:45:23.212Z,3.93
2019-02-06T07:47:51.427Z,4.40
2019-02-06T07:50:25.015Z,4.00
2019-02-06T07:52:53.408Z,4.00
2019-02-06T07:55:21.639Z,3.93
2019-02-06T07:57:49.901Z,3.63
2019-02-06T08:00:18.123Z,4.17
2019-02-06T08:02:46.346Z,3.70
2019-02-06T08:05:16.929Z,3.77
2019-02-06T08:07:45.151Z,4.20
2019-02-06T08:10:16.761Z,4.27
2019-02-06T08:12:44.988Z,3.93
2019-02-06T08:15:15.687Z,3.90
2019-02-06T08:17:43.989Z,4.60
2019-02-06T08:20:19.952Z,3.70
2019-02-06T08:22:48.187Z,3.93
2019-02-06T08:25:18.056Z,3.80
2019-02-06T08:27:46.305Z,3.90
2019-02-06T08:30:20.189Z,3.97
2019-02-06T08:32:48.416Z,4.10
2019-02-06T08:35:16.984Z,4.63
2019-02-06T08:37:45.247Z,3.97
2019-02-06T08:40:16.239Z,3.83
2019-02-06T08:42:44.480Z,5.43
2019-02-06T08:45:15.715Z,3.60
2019-02-06T08:47:44.000Z,9.00
2019-02-06T08:50:15.055Z,3.40
2019-02-06T08:52:43.447Z,3.50
2019-02-06T08:55:17.351Z,3.90
2019-02-06T08:57:45.592Z,3.47
2019-02-06T09:00:19.789Z,3.73
2019-02-06T09:02:48.033Z,4.10
2019-02-06T09:05:16.256Z,3.83
2019-02-06T09:07:44.843Z,4.07
2019-02-06T09:10:19.067Z,3.80
2019-02-06T09:12:47.320Z,3.70
2019-02-06T09:15:15.535Z,3.90
2019-02-06T09:17:43.753Z,4.10
2019-02-06T09:20:16.988Z,3.90
2019-02-06T09:22:45.481Z,3.83
2019-02-06T09:25:19.859Z,4.00
2019-02-06T09:27:48.323Z,4.00
2019-02-06T09:30:19.216Z,3.90
2019-02-06T09:32:47.672Z,4.00
2019-02-06T09:35:16.210Z,3.70
2019-02-06T09:37:44.703Z,4.30
2019-02-06T09:40:15.785Z,4.13
2019-02-06T09:42:44.004Z,4.10
2019-02-06T09:45:13.603Z,3.77
2019-02-06T09:47:41.911Z,4.30
2019-02-06T09:50:29.537Z,3.80
2019-02-06T09:52:57.743Z,4.30
2019-02-06T09:55:25.987Z,3.90
2019-02-06T09:57:54.212Z,4.30
2019-02-06T10:00:25.248Z,3.40
2019-02-06T10:02:53.508Z,3.60
2019-02-06T10:05:22.096Z,4.00
2019-02-06T10:07:50.319Z,4.00
2019-02-06T10:10:20.399Z,4.53
2019-02-06T10:12:48.846Z,3.93
2019-02-06T10:15:26.035Z,3.70
2019-02-06T10:17:54.987Z,3.67
2019-02-06T10:20:25.572Z,4.10
2019-02-06T10:22:53.787Z,3.63
2019-02-06T10:25:22.026Z,3.53
2019-02-06T10:27:50.245Z,3.97
2019-02-06T10:30:24.412Z,3.83
2019-02-06T10:32:52.890Z,4.67
2019-02-06T10:35:21.131Z,3.70
2019-02-06T10:37:49.396Z,3.90
2019-02-06T10:40:18.153Z,3.40
2019-02-06T10:42:46.455Z,3.50
2019-02-06T10:45:17.043Z,3.50
2019-02-06T10:47:45.333Z,4.47
2019-02-06T10:50:19.168Z,4.03
2019-02-06T10:52:48.391Z,3.67
2019-02-06T10:55:16.776Z,3.47
2019-02-06T10:57:45.056Z,3.60
2019-02-06T11:00:16.548Z,4.80
2019-02-06T11:02:44.930Z,3.40
2019-02-06T11:05:13.821Z,3.57
2019-02-06T11:07:42.042Z,3.30
2019-02-06T11:10:13.402Z,3.40
2019-02-06T11:12:41.627Z,3.40
2019-02-06T11:15:11.225Z,3.30
2019-02-06T11:17:39.444Z,3.43
2019-02-06T11:20:16.664Z,3.73
2019-02-06T11:22:44.915Z,3.03
2019-02-06T11:25:14.855Z,3.87
2019-02-06T11:27:43.092Z,3.03
2019-02-06T11:30:23.516Z,3.10
2019-02-06T11:32:52.029Z,3.17
2019-02-06T11:35:20.259Z,2.93
2019-02-06T11:37:48.606Z,2.90
2019-02-06T11:40:18.704Z,3.10
2019-02-06T11:42:46.955Z,3.23
2019-02-06T11:45:18.176Z,3.27
2019-02-06T11:47:46.846Z,2.87
2019-02-06T11:50:23.829Z,2.87
2019-02-06T11:52:52.905Z,3.00
2019-02-06T11:55:29.005Z,3.10
2019-02-06T11:57:57.239Z,2.97
2019-02-06T12:00:27.457Z,2.90
2019-02-06T12:02:55.683Z,2.97
2019-02-06T12:05:23.924Z,2.80
2019-02-06T12:07:52.163Z,2.83
2019-02-06T12:10:21.029Z,3.20
2019-02-06T12:12:49.313Z,3.43
2019-02-06T12:15:19.636Z,2.73
2019-02-06T12:17:47.881Z,3.20
2019-02-06T12:20:18.340Z,3.10
2019-02-06T12:22:46.584Z,3.73
2019-02-06T12:25:16.675Z,2.90
2019-02-06T12:27:45.960Z,3.07
2019-02-06T12:30:22.917Z,2.70
2019-02-06T12:32:52.199Z,7.77
2019-02-06T12:35:20.820Z,4.73
2019-02-06T12:37:49.121Z,6.33
2019-02-06T12:40:21.685Z,6.87
2019-02-06T12:42:47.390Z,5.20
2019-02-06T12:45:23.576Z,5.07
2019-02-06T12:47:52.177Z,4.10
2019-02-06T12:50:24.172Z,5.67
2019-02-06T12:52:52.547Z,4.37
2019-02-06T12:55:28.787Z,4.97
2019-02-06T12:57:57.062Z,7.60
2019-02-06T13:00:30.932Z,4.57
2019-02-06T13:03:00.066Z,3.50
2019-02-06T13:05:29.553Z,6.57
2019-02-06T13:07:57.884Z,6.73
2019-02-06T13:10:33.240Z,6.77
2019-02-06T13:12:56.181Z,6.27
2019-02-06T13:15:24.709Z,10.57
2019-02-06T13:17:53.337Z,12.43
2019-02-06T13:20:29.680Z,7.90
2019-02-06T13:22:58.261Z,9.50
2019-02-06T13:25:26.773Z,4.57
2019-02-06T13:27:55.314Z,6.47
2019-02-06T13:30:37.461Z,7.20
2019-02-06T13:33:07.445Z,9.70
2019-02-06T13:35:36.182Z,10.33
2019-02-06T13:38:04.560Z,5.57
2019-02-06T13:40:44.728Z,13.97
2019-02-06T13:43:02.926Z,6.63
2019-02-06T13:45:34.238Z,5.20
2019-02-06T13:48:02.565Z,5.77
2019-02-06T13:50:30.899Z,8.13
2019-02-06T13:52:59.508Z,6.60
2019-02-06T13:55:28.099Z,9.80
2019-02-06T13:57:56.687Z,5.57
2019-02-06T14:00:34.660Z,7.50
2019-02-06T14:03:02.947Z,7.87
2019-02-06T14:05:32.048Z,4.87
2019-02-06T14:08:02.502Z,6.23
2019-02-06T14:10:32.297Z,7.33
2019-02-06T14:13:01.014Z,7.03
2019-02-06T14:15:32.441Z,7.77
2019-02-06T14:18:00.699Z,9.17
2019-02-06T14:20:28.919Z,5.77
2019-02-06T14:23:03.170Z,7.67
2019-02-06T14:25:37.434Z,7.23
2019-02-06T14:28:20.379Z,8.60
2019-02-06T14:31:03.417Z,7.70
2019-02-06T14:33:34.920Z,5.73
2019-02-06T14:36:30.230Z,5.90
2019-02-06T14:39:16.797Z,7.73
2019-02-06T14:42:04.132Z,6.60
2019-02-06T14:45:02.249Z,5.53
2019-02-06T14:47:48.288Z,9.23
2019-02-06T14:50:22.788Z,11.80
2019-02-06T14:53:10.320Z,4.87
2019-02-06T14:55:41.844Z,9.20
2019-02-06T14:58:22.132Z,9.03
2019-02-06T15:01:02.307Z,6.17
2019-02-06T15:03:46.123Z,8.00
2019-02-06T15:06:37.104Z,7.23
2019-02-06T15:09:25.042Z,9.03
2019-02-06T15:11:56.544Z,11.07
2019-02-06T15:14:42.601Z,5.87
2019-02-06T15:17:37.740Z,7.43
2019-02-06T15:20:21.035Z,5.70
2019-02-06T15:22:55.027Z,7.80
2019-02-06T15:25:32.387Z,8.00
2019-02-06T15:28:20.236Z,9.60
2019-02-06T15:30:54.480Z,8.87
2019-02-06T15:33:34.346Z,10.87
2019-02-06T15:36:05.824Z,10.20
2019-02-06T15:38:57.524Z,10.40
2019-02-06T15:41:31.680Z,12.97
2019-02-06T15:44:05.600Z,12.70
2019-02-06T15:46:39.777Z,14.93
2019-02-06T15:49:23.060Z,19.10
2019-02-06T15:52:18.447Z,16.03
2019-02-06T15:54:52.803Z,24.97
2019-02-06T15:57:41.066Z,19.00
2019-02-06T16:00:18.597Z,20.60
2019-02-06T16:03:13.101Z,19.53
2019-02-06T16:05:46.241Z,15.97
2019-02-06T16:08:32.675Z,28.23
2019-02-06T16:11:07.043Z,15.47
2019-02-06T16:14:09.852Z,10.97
2019-02-06T16:17:11.412Z,14.27
2019-02-06T16:19:48.739Z,25.00
2019-02-06T16:22:48.783Z,18.53
2019-02-06T16:25:31.960Z,23.30
2019-02-06T16:28:03.448Z,18.30
2019-02-06T16:30:38.059Z,13.23
2019-02-06T16:33:15.242Z,20.63
2019-02-06T16:36:01.960Z,25.47
2019-02-06T16:38:39.085Z,21.00
2019-02-06T16:41:29.708Z,19.33
2019-02-06T16:44:13.196Z,13.90
2019-02-06T16:47:19.063Z,17.27
2019-02-06T16:50:14.869Z,19.27
2019-02-06T16:53:13.228Z,19.03
2019-02-06T16:56:03.897Z,18.83
2019-02-06T16:58:50.366Z,14.67
2019-02-06T17:01:41.103Z,17.67
2019-02-06T17:04:40.639Z,18.60
2019-02-06T17:07:17.817Z,16.13
2019-02-06T17:09:49.308Z,14.57
2019-02-06T17:12:29.805Z,17.90
2019-02-06T17:15:07.564Z,19.80
2019-02-06T17:17:39.391Z,20.70
2019-02-06T17:20:13.516Z,27.33
2019-02-06T17:22:45.011Z,18.40
2019-02-06T17:25:22.028Z,31.73
2019-02-06T17:28:11.432Z,12.80
2019-02-06T17:30:54.789Z,20.30
2019-02-06T17:33:31.746Z,21.97
2019-02-06T17:36:09.460Z,20.97
2019-02-06T17:39:00.308Z,17.67
2019-02-06T17:41:31.876Z,20.27
2019-02-06T17:44:09.340Z,18.60
2019-02-06T17:46:43.531Z,21.37
2019-02-06T17:49:32.697Z,16.83
2019-02-06T17:52:13.408Z,11.90
2019-02-06T17:54:50.838Z,12.77
2019-02-06T17:57:19.072Z,14.70
2019-02-06T17:59:47.307Z,13.80
2019-02-06T18:02:15.583Z,10.57
2019-02-06T18:04:44.043Z,17.07
2019-02-06T18:07:12.269Z,14.53
2019-02-06T18:09:41.004Z,10.50
2019-02-06T18:12:09.250Z,8.90
2019-02-06T18:14:37.472Z,15.33
2019-02-06T18:17:05.716Z,11.33
2019-02-06T18:19:38.457Z,14.77
2019-02-06T18:22:06.873Z,13.07
2019-02-06T18:24:35.104Z,15.67
2019-02-06T18:27:03.339Z,9.33
2019-02-06T18:29:31.560Z,9.53
2019-02-06T18:32:00.028Z,8.03
2019-02-06T18:34:28.265Z,10.57
2019-02-06T18:36:56.883Z,7.33
2019-02-06T18:42:00.152Z,11.97
2019-02-06T18:44:38.776Z,8.53
2019-02-06T18:50:52.950Z,7.57
2019-02-06T18:53:40.984Z,10.43
2019-02-06T18:56:28.652Z,9.33
2019-02-06T18:59:16.728Z,5.93
2019-02-06T19:02:04.665Z,8.63
2019-02-06T19:04:52.441Z,6.37
2019-02-06T19:07:41.829Z,5.80
2019-02-06T19:10:29.582Z,6.23
2019-02-06T19:13:17.313Z,8.53
2019-02-06T19:16:04.988Z,6.23
2019-02-06T19:18:52.640Z,7.20
2019-02-06T19:21:42.058Z,6.27
2019-02-06T19:24:29.786Z,6.47
2019-02-06T19:27:17.477Z,7.57
2019-02-06T19:30:24.626Z,7.07
2019-02-06T19:33:12.676Z,5.87
2019-02-06T19:35:53.729Z,6.87
2019-02-06T19:38:34.807Z,5.90
2019-02-06T19:41:15.512Z,7.97
2019-02-06T19:43:56.287Z,5.93
2019-02-06T19:46:36.512Z,6.37
2019-02-06T19:49:17.403Z,6.43
2019-02-06T19:51:58.583Z,5.53
2019-02-06T19:54:39.670Z,6.20
2019-02-06T19:57:20.977Z,7.70
2019-02-06T20:00:01.942Z,4.93
2019-02-06T20:02:42.757Z,4.40
2019-02-06T20:05:23.889Z,4.90
2019-02-06T20:08:05.068Z,6.27
2019-02-06T20:10:45.904Z,4.60
2019-02-06T20:13:27.078Z,4.97
2019-02-06T20:16:07.767Z,8.93
2019-02-06T20:18:48.495Z,5.07
2019-02-06T20:21:29.489Z,4.50
2019-02-06T20:24:10.771Z,5.13
2019-02-06T20:26:52.216Z,4.53
2019-02-06T20:29:33.073Z,7.70
2019-02-06T20:32:13.602Z,5.57
2019-02-06T20:34:52.324Z,4.83
2019-02-06T20:37:40.227Z,5.77
2019-02-06T20:40:47.323Z,5.37
2019-02-06T20:43:35.077Z,4.30
2019-02-06T20:46:24.735Z,4.60
2019-02-06T20:49:12.403Z,3.33
2019-02-06T20:52:00.060Z,4.87
2019-02-06T20:54:47.736Z,5.73
2019-02-06T20:57:35.438Z,3.93
2019-02-06T21:00:42.741Z,4.70
2019-02-06T21:03:30.420Z,5.17
2019-02-06T21:06:18.112Z,4.07
2019-02-06T21:09:26.614Z,4.10
2019-02-06T21:12:06.904Z,2.90
2019-02-06T21:14:47.839Z,4.80
2019-02-06T21:17:28.516Z,3.73
2019-02-06T21:20:09.695Z,4.83
2019-02-06T21:22:51.167Z,4.67
2019-02-06T21:25:32.544Z,4.43
2019-02-06T21:28:13.384Z,4.43
2019-02-06T21:30:54.500Z,3.90
2019-02-06T21:33:35.389Z,3.77
2019-02-06T21:36:16.711Z,5.93
2019-02-06T21:38:57.786Z,3.03
2019-02-06T21:41:39.064Z,3.40
2019-02-06T21:44:20.116Z,4.07
2019-02-06T21:47:01.088Z,5.80
2019-02-06T21:49:41.968Z,4.20
2019-02-06T21:52:23.160Z,3.07
2019-02-06T21:55:04.084Z,5.20
2019-02-06T21:57:44.969Z,4.50
2019-02-06T22:00:25.988Z,3.03
2019-02-06T22:03:06.605Z,3.57
2019-02-06T22:05:47.688Z,3.60
2019-02-06T22:08:28.464Z,3.00
2019-02-06T22:11:09.728Z,4.37
2019-02-06T22:13:55.312Z,4.10
2019-02-06T22:16:32.620Z,3.13
2019-02-06T22:19:13.587Z,3.17
2019-02-06T22:21:54.796Z,3.47
2019-02-06T22:24:35.889Z,3.07
2019-02-06T22:27:16.048Z,3.30
2019-02-06T22:29:57.161Z,4.00
2019-02-06T22:32:37.393Z,3.47
2019-02-06T22:35:18.263Z,3.40
2019-02-06T22:37:58.800Z,4.33
2019-02-06T22:40:39.593Z,3.80
2019-02-06T22:43:20.265Z,2.40
2019-02-06T22:46:01.332Z,3.00
2019-02-06T22:48:41.860Z,2.83
2019-02-06T22:51:22.153Z,3.33
2019-02-06T22:54:03.068Z,3.80
2019-02-06T22:56:43.261Z,3.73
2019-02-06T22:59:24.451Z,2.97
2019-02-06T23:02:05.177Z,3.70
2019-02-06T23:07:12.396Z,3.53
2019-02-06T23:09:53.536Z,2.70
2019-02-06T23:12:33.893Z,2.40
2019-02-06T23:15:14.809Z,2.70
2019-02-06T23:17:55.847Z,3.60
2019-02-06T23:20:36.140Z,3.10
2019-02-06T23:23:17.176Z,2.27
2019-02-06T23:25:58.021Z,3.40
2019-02-06T23:28:38.769Z,3.10
2019-02-06T23:31:18.976Z,2.40
2019-02-06T23:33:59.597Z,2.87
2019-02-06T23:36:40.708Z,2.93
2019-02-06T23:39:21.667Z,2.97
2019-02-06T23:42:02.698Z,2.87
2019-02-06T23:44:43.565Z,3.53
2019-02-06T23:47:24.738Z,3.47
2019-02-06T23:50:05.346Z,3.23
2019-02-06T23:52:46.388Z,2.63
2019-02-06T23:55:26.958Z,3.17
2019-02-06T23:58:07.338Z,2.73
